createdAt,value
2023-05-18T00:00:55.097Z,64.65
2023-05-18T00:03:26.828Z,65.45
2023-05-18T00:05:58.557Z,64.86
2023-05-18T00:08:37.558Z,65.93
2023-05-18T00:11:09.206Z,65.08
2023-05-18T00:13:40.801Z,65.08
2023-05-18T00:16:12.423Z,66.23
2023-05-18T00:18:44.087Z,65.50
2023-05-18T00:21:15.734Z,65.98
2023-05-18T00:23:47.304Z,65.54
2023-05-18T00:26:18.835Z,65.50
2023-05-18T00:28:53.350Z,65.66
2023-05-18T00:31:25.013Z,64.92
2023-05-18T00:33:56.665Z,65.68
2023-05-18T00:36:28.312Z,65.67
2023-05-18T00:39:00.406Z,65.81
2023-05-18T00:41:33.346Z,66.11
2023-05-18T00:44:05.304Z,66.43
2023-05-18T00:46:37.148Z,65.83
2023-05-18T00:49:09.082Z,66.53
2023-05-18T00:51:41.254Z,66.13
2023-05-18T00:54:13.455Z,66.70
2023-05-18T00:56:45.099Z,65.86
2023-05-18T00:59:16.915Z,66.86
2023-05-18T01:01:48.804Z,66.08
2023-05-18T01:04:20.385Z,66.09
2023-05-18T01:06:52.047Z,66.23
2023-05-18T01:09:24.495Z,67.63
2023-05-18T01:12:29.494Z,67.03
2023-05-18T01:15:16.517Z,67.14
2023-05-18T01:18:10.814Z,67.62
2023-05-18T01:21:11.091Z,67.82
2023-05-18T01:24:04.317Z,67.63
2023-05-18T01:26:43.677Z,67.62
2023-05-18T01:29:17.955Z,68.45
2023-05-18T01:31:50.595Z,67.51
2023-05-18T01:34:22.339Z,68.11
2023-05-18T01:36:54.072Z,68.90
2023-05-18T01:39:26.079Z,68.41
2023-05-18T01:42:06.053Z,68.49
2023-05-18T01:44:50.101Z,67.65
2023-05-18T01:47:25.188Z,68.86
2023-05-18T01:50:04.990Z,68.58
2023-05-18T01:52:40.096Z,67.92
2023-05-18T01:55:17.092Z,68.46
2023-05-18T01:57:53.339Z,68.07
2023-05-18T02:00:26.056Z,67.94
2023-05-18T02:02:57.930Z,67.83
2023-05-18T02:05:29.924Z,68.07
2023-05-18T02:08:01.939Z,67.88
2023-05-18T02:10:33.745Z,68.50
2023-05-18T02:13:07.586Z,68.78
2023-05-18T02:15:39.983Z,68.17
2023-05-18T02:18:11.731Z,68.47
2023-05-18T02:20:43.484Z,69.17
2023-05-18T02:23:15.769Z,68.85
2023-05-18T02:25:47.444Z,69.08
2023-05-18T02:28:19.111Z,68.56
2023-05-18T02:30:50.809Z,68.43
2023-05-18T02:33:22.431Z,69.41
2023-05-18T02:35:55.624Z,68.09
2023-05-18T02:38:27.802Z,68.49
2023-05-18T02:40:59.408Z,68.86
2023-05-18T02:43:31.334Z,68.68
2023-05-18T02:46:04.018Z,69.49
2023-05-18T02:48:36.987Z,69.61
2023-05-18T02:51:08.656Z,69.37
2023-05-18T02:53:40.312Z,69.84
2023-05-18T02:56:16.011Z,70.04
2023-05-18T02:58:54.329Z,69.28
2023-05-18T03:01:31.483Z,70.33
2023-05-18T03:04:03.544Z,69.53
2023-05-18T03:06:35.862Z,70.64
2023-05-18T03:09:07.519Z,68.99
2023-05-18T03:11:45.011Z,69.81
2023-05-18T03:14:16.938Z,70.02
2023-05-18T03:16:49.586Z,69.82
2023-05-18T03:19:22.393Z,68.86
2023-05-18T03:21:54.761Z,69.13
2023-05-18T03:24:26.687Z,68.45
2023-05-18T03:26:58.778Z,69.45
2023-05-18T03:29:31.580Z,69.43
2023-05-18T03:32:05.995Z,69.79
2023-05-18T03:34:37.801Z,69.70
2023-05-18T03:37:09.914Z,69.31
2023-05-18T03:39:41.633Z,69.09
2023-05-18T03:42:13.591Z,68.96
2023-05-18T03:44:46.084Z,69.76
2023-05-18T03:47:17.710Z,70.53
2023-05-18T03:49:49.393Z,69.38
2023-05-18T03:52:21.593Z,71.01
2023-05-18T03:54:53.231Z,70.50
2023-05-18T03:57:24.943Z,70.02
2023-05-18T03:59:56.819Z,70.02
2023-05-18T04:02:28.813Z,69.88
2023-05-18T04:05:00.593Z,69.15
2023-05-18T04:07:32.550Z,70.06
2023-05-18T04:10:04.560Z,70.58
2023-05-18T04:12:36.271Z,69.27
2023-05-18T04:15:08.716Z,69.68
2023-05-18T04:17:40.787Z,69.36
2023-05-18T04:20:13.788Z,69.57
2023-05-18T04:22:47.242Z,69.30
2023-05-18T04:25:19.522Z,69.15
2023-05-18T04:27:54.203Z,69.21
2023-05-18T04:30:27.698Z,69.51
2023-05-18T04:33:00.609Z,69.04
2023-05-18T04:35:33.132Z,69.56
2023-05-18T04:38:04.926Z,68.97
2023-05-18T04:40:37.015Z,68.85
2023-05-18T04:43:10.535Z,68.78
2023-05-18T04:45:43.746Z,69.25
2023-05-18T04:48:16.691Z,68.10
2023-05-18T04:50:49.284Z,66.99
2023-05-18T04:53:21.171Z,68.37
2023-05-18T04:55:53.065Z,68.05
2023-05-18T04:58:24.726Z,67.74
2023-05-18T05:00:56.946Z,67.76
2023-05-18T05:03:29.125Z,68.33
2023-05-18T05:06:01.090Z,68.28
2023-05-18T05:08:32.869Z,68.69
2023-05-18T05:11:04.648Z,68.65
2023-05-18T05:13:36.420Z,68.68
2023-05-18T05:16:08.101Z,68.47
2023-05-18T05:18:39.807Z,68.32
2023-05-18T05:21:11.680Z,67.42
2023-05-18T05:23:43.624Z,67.11
2023-05-18T05:26:15.329Z,67.43
2023-05-18T05:28:47.726Z,66.48
2023-05-18T05:31:19.365Z,66.74
2023-05-18T05:33:51.268Z,66.74
2023-05-18T05:36:22.924Z,65.96
2023-05-18T05:38:54.982Z,65.72
2023-05-18T05:41:26.819Z,66.46
2023-05-18T05:43:58.497Z,66.17
2023-05-18T05:46:30.250Z,66.34
2023-05-18T05:49:03.367Z,65.46
2023-05-18T05:51:35.145Z,65.89
2023-05-18T05:54:07.900Z,64.39
2023-05-18T05:56:41.159Z,62.69
2023-05-18T05:59:14.634Z,61.37
2023-05-18T06:01:46.413Z,56.13
2023-05-18T06:04:18.048Z,57.05
2023-05-18T06:06:50.770Z,56.08
2023-05-18T06:09:22.520Z,56.15
2023-05-18T06:11:54.912Z,58.69
2023-05-18T06:14:26.931Z,59.09
2023-05-18T06:17:00.503Z,58.14
2023-05-18T06:19:32.332Z,56.11
2023-05-18T06:22:04.240Z,56.51
2023-05-18T06:24:43.768Z,56.20
2023-05-18T06:27:35.633Z,57.50
2023-05-18T06:30:22.821Z,57.62
2023-05-18T06:33:23.776Z,60.21
2023-05-18T06:35:55.595Z,59.91
2023-05-18T06:38:27.203Z,58.49
2023-05-18T06:40:59.101Z,59.63
2023-05-18T06:43:30.854Z,60.81
2023-05-18T06:46:08.894Z,59.32
2023-05-18T06:48:44.734Z,58.57
2023-05-18T06:51:16.412Z,56.70
2023-05-18T06:53:49.364Z,58.86
2023-05-18T06:56:21.142Z,56.34
2023-05-18T06:58:52.790Z,55.71
2023-05-18T07:01:24.609Z,55.67
2023-05-18T07:03:59.592Z,56.65
2023-05-18T07:06:31.380Z,55.69
2023-05-18T07:09:03.790Z,56.29
2023-05-18T07:11:35.428Z,53.95
2023-05-18T07:14:07.172Z,54.79
2023-05-18T07:16:38.897Z,55.21
2023-05-18T07:19:10.730Z,56.67
2023-05-18T07:21:42.511Z,57.56
2023-05-18T07:24:14.069Z,58.23
2023-05-18T07:26:45.794Z,56.69
2023-05-18T07:29:17.353Z,54.05
2023-05-18T07:31:49.032Z,54.93
2023-05-18T07:34:20.613Z,52.96
2023-05-18T07:36:52.617Z,54.28
2023-05-18T07:39:24.327Z,52.91
2023-05-18T07:41:56.624Z,52.25
2023-05-18T07:44:28.289Z,52.50
2023-05-18T07:47:00.070Z,55.05
2023-05-18T07:49:31.855Z,57.10
2023-05-18T07:52:03.638Z,55.18
2023-05-18T07:54:35.282Z,56.76
2023-05-18T07:57:07.008Z,56.78
2023-05-18T07:59:38.649Z,57.76
2023-05-18T08:02:10.341Z,57.19
2023-05-18T08:04:42.241Z,57.95
2023-05-18T08:07:14.130Z,55.68
2023-05-18T08:09:45.802Z,56.05
2023-05-18T08:12:17.503Z,55.80
2023-05-18T08:14:49.180Z,57.58
2023-05-18T08:17:20.865Z,58.79
2023-05-18T08:19:52.483Z,57.09
2023-05-18T08:22:24.062Z,57.70
2023-05-18T08:24:55.657Z,57.96
2023-05-18T08:27:28.914Z,56.65
2023-05-18T08:30:00.478Z,57.18
2023-05-18T08:32:32.282Z,54.13
2023-05-18T08:35:05.265Z,57.42
2023-05-18T08:37:36.912Z,58.10
2023-05-18T08:40:09.337Z,56.69
2023-05-18T08:43:01.018Z,54.10
2023-05-18T08:45:50.217Z,57.01
2023-05-18T08:48:24.392Z,58.81
2023-05-18T08:51:01.272Z,55.01
2023-05-18T08:53:33.309Z,54.58
2023-05-18T08:56:05.718Z,54.31
2023-05-18T08:58:46.757Z,54.91
2023-05-18T09:01:18.572Z,54.64
2023-05-18T09:03:50.691Z,54.67
2023-05-18T09:06:24.181Z,54.44
2023-05-18T09:08:56.880Z,53.91
2023-05-18T09:11:28.570Z,56.62
2023-05-18T09:14:01.015Z,51.33
2023-05-18T09:16:33.110Z,53.61
2023-05-18T09:19:05.234Z,53.52
2023-05-18T09:21:36.935Z,51.28
2023-05-18T09:24:08.625Z,51.13
2023-05-18T09:26:40.454Z,51.67
2023-05-18T09:29:20.913Z,55.54
2023-05-18T09:31:53.635Z,53.39
2023-05-18T09:34:25.912Z,54.30
2023-05-18T09:36:58.415Z,52.34
2023-05-18T09:39:30.074Z,50.58
2023-05-18T09:42:04.164Z,54.02
2023-05-18T09:44:35.958Z,52.60
2023-05-18T09:47:09.452Z,52.21
2023-05-18T09:49:41.177Z,52.05
2023-05-18T09:52:12.809Z,49.77
2023-05-18T09:54:44.693Z,52.25
2023-05-18T09:57:20.633Z,53.71
2023-05-18T10:00:06.442Z,51.61
2023-05-18T10:02:42.668Z,52.66
2023-05-18T10:05:27.197Z,47.52
2023-05-18T10:07:58.836Z,51.60
2023-05-18T10:10:30.755Z,49.54
2023-05-18T10:13:02.595Z,51.87
2023-05-18T10:15:35.621Z,52.01
2023-05-18T10:18:07.702Z,50.76
2023-05-18T10:20:40.419Z,51.66
2023-05-18T10:23:12.739Z,54.28
2023-05-18T10:25:46.694Z,54.09
2023-05-18T10:28:23.414Z,52.17
2023-05-18T10:30:57.263Z,54.17
2023-05-18T10:33:31.605Z,54.01
2023-05-18T10:36:05.189Z,51.56
2023-05-18T10:38:38.148Z,50.97
2023-05-18T10:41:13.425Z,51.12
2023-05-18T10:43:46.109Z,52.64
2023-05-18T10:46:18.094Z,51.36
2023-05-18T10:48:52.574Z,52.08
2023-05-18T10:51:26.334Z,51.41
2023-05-18T10:54:12.204Z,49.82
2023-05-18T10:56:48.156Z,49.28
2023-05-18T10:59:21.537Z,48.10
2023-05-18T11:01:56.991Z,47.24
2023-05-18T11:04:28.912Z,47.38
2023-05-18T11:07:01.189Z,48.88
2023-05-18T11:09:33.615Z,46.27
2023-05-18T11:12:14.810Z,46.78
2023-05-18T11:14:54.382Z,47.72
2023-05-18T11:17:29.534Z,46.48
2023-05-18T11:20:03.930Z,46.38
2023-05-18T11:22:58.141Z,46.55
2023-05-18T11:25:32.496Z,44.19
2023-05-18T11:28:07.925Z,47.86
2023-05-18T11:30:39.554Z,47.69
2023-05-18T11:33:15.797Z,45.38
2023-05-18T11:35:55.907Z,48.93
2023-05-18T11:38:48.745Z,44.90
2023-05-18T11:41:58.576Z,48.57
2023-05-18T11:44:30.198Z,47.41
2023-05-18T11:47:07.808Z,49.17
2023-05-18T11:49:47.932Z,48.53
2023-05-18T11:52:24.733Z,47.37
2023-05-18T11:55:01.264Z,48.95
2023-05-18T11:57:35.646Z,46.73
2023-05-18T12:00:09.405Z,45.48
2023-05-18T12:02:48.886Z,47.33
2023-05-18T12:05:21.390Z,43.79
2023-05-18T12:07:53.676Z,44.05
2023-05-18T12:10:25.478Z,45.94
2023-05-18T12:12:57.689Z,47.82
2023-05-18T12:15:30.527Z,48.20
2023-05-18T12:18:04.613Z,47.09
2023-05-18T12:20:40.264Z,47.17
2023-05-18T12:23:11.926Z,47.33
2023-05-18T12:25:43.595Z,46.71
2023-05-18T12:28:15.251Z,47.01
2023-05-18T12:30:46.930Z,49.79
2023-05-18T12:33:21.124Z,48.82
2023-05-18T12:35:54.872Z,49.86
2023-05-18T12:38:26.467Z,51.08
2023-05-18T12:40:58.152Z,46.46
2023-05-18T12:43:36.609Z,48.24
2023-05-18T12:46:08.529Z,48.14
2023-05-18T12:48:46.325Z,47.24
2023-05-18T12:51:19.486Z,48.93
2023-05-18T12:53:53.149Z,47.04
2023-05-18T12:57:01.487Z,44.02
2023-05-18T12:59:33.979Z,44.66
2023-05-18T13:02:06.758Z,44.19
2023-05-18T13:04:38.371Z,46.78
2023-05-18T13:07:12.217Z,45.87
2023-05-18T13:09:46.657Z,45.55
2023-05-18T13:12:18.354Z,46.38
2023-05-18T13:14:53.169Z,46.69
2023-05-18T13:17:24.911Z,46.89
2023-05-18T13:19:57.812Z,47.19
2023-05-18T13:22:29.646Z,46.69
2023-05-18T13:25:01.278Z,47.05
2023-05-18T13:27:32.911Z,46.29
2023-05-18T13:30:05.143Z,47.30
2023-05-18T13:32:36.858Z,48.13
2023-05-18T13:35:08.981Z,49.02
2023-05-18T13:37:40.627Z,48.15
2023-05-18T13:40:12.841Z,48.75
2023-05-18T13:42:45.875Z,46.52
2023-05-18T13:45:17.656Z,46.94
2023-05-18T13:47:49.618Z,50.26
2023-05-18T13:50:21.582Z,47.11
2023-05-18T13:52:53.339Z,48.42
2023-05-18T13:55:25.010Z,48.45
2023-05-18T13:57:56.859Z,51.35
2023-05-18T14:00:28.680Z,49.36
2023-05-18T14:03:00.544Z,48.18
2023-05-18T14:05:32.226Z,48.34
2023-05-18T14:08:04.050Z,47.14
2023-05-18T14:10:35.620Z,48.74
2023-05-18T14:13:07.210Z,47.32
2023-05-18T14:15:38.841Z,48.36
2023-05-18T14:18:10.537Z,48.35
2023-05-18T14:20:42.281Z,48.86
2023-05-18T14:23:13.921Z,47.56
2023-05-18T14:25:45.626Z,48.47
2023-05-18T14:28:17.400Z,49.25
2023-05-18T14:30:49.213Z,46.45
2023-05-18T14:33:23.210Z,47.78
2023-05-18T14:35:54.899Z,48.45
2023-05-18T14:38:26.445Z,48.23
2023-05-18T14:40:58.033Z,50.09
2023-05-18T14:43:29.593Z,50.23
2023-05-18T14:46:08.522Z,49.66
2023-05-18T14:48:40.455Z,50.33
2023-05-18T14:51:12.239Z,49.09
2023-05-18T14:53:44.047Z,49.26
2023-05-18T14:56:15.822Z,51.45
2023-05-18T14:58:47.449Z,50.40
2023-05-18T15:01:19.543Z,50.50
2023-05-18T15:03:51.223Z,51.18
2023-05-18T15:06:25.011Z,50.12
2023-05-18T15:08:56.742Z,49.71
2023-05-18T15:11:28.344Z,49.56
2023-05-18T15:13:59.894Z,48.73
2023-05-18T15:16:31.491Z,51.71
2023-05-18T15:19:03.108Z,49.22
2023-05-18T15:21:34.806Z,49.36
2023-05-18T15:24:06.846Z,49.07
2023-05-18T15:26:38.597Z,48.50
2023-05-18T15:29:10.322Z,47.06
2023-05-18T15:31:41.951Z,47.51
2023-05-18T15:34:13.667Z,46.27
2023-05-18T15:36:45.257Z,46.37
2023-05-18T15:39:17.076Z,47.10
2023-05-18T15:41:48.716Z,47.44
2023-05-18T15:44:20.380Z,47.89
2023-05-18T15:46:51.970Z,48.19
2023-05-18T15:49:23.614Z,48.39
2023-05-18T15:51:55.295Z,48.79
2023-05-18T15:54:26.944Z,49.45
2023-05-18T15:56:58.636Z,50.77
2023-05-18T15:59:30.242Z,50.90
2023-05-18T16:02:01.803Z,51.20
2023-05-18T16:04:33.473Z,50.30
2023-05-18T16:07:05.242Z,49.94
2023-05-18T16:09:36.833Z,48.73
2023-05-18T16:12:08.751Z,50.11
2023-05-18T16:14:40.365Z,49.13
2023-05-18T16:17:12.122Z,50.32
2023-05-18T16:19:43.767Z,49.48
2023-05-18T16:22:15.319Z,48.73
2023-05-18T16:24:46.961Z,50.04
2023-05-18T16:27:18.546Z,51.38
2023-05-18T16:29:50.194Z,51.33
2023-05-18T16:32:21.848Z,50.74
2023-05-18T16:34:53.390Z,50.37
2023-05-18T16:37:25.021Z,51.21
2023-05-18T16:39:56.598Z,51.78
2023-05-18T16:42:28.201Z,52.67
2023-05-18T16:44:59.949Z,51.46
2023-05-18T16:47:31.691Z,52.25
2023-05-18T16:50:03.479Z,52.26
2023-05-18T16:52:35.112Z,51.50
2023-05-18T16:55:07.015Z,52.22
2023-05-18T16:57:38.842Z,52.67
2023-05-18T17:00:11.229Z,52.69
2023-05-18T17:02:43.618Z,52.67
2023-05-18T17:05:15.342Z,53.18
2023-05-18T17:07:47.210Z,52.38
2023-05-18T17:10:19.553Z,51.63
2023-05-18T17:12:51.195Z,51.75
2023-05-18T17:15:22.895Z,53.39
2023-05-18T17:17:54.621Z,53.57
2023-05-18T17:20:29.410Z,53.04
2023-05-18T17:23:02.162Z,53.84
2023-05-18T17:25:34.323Z,52.62
2023-05-18T17:28:06.047Z,53.10
2023-05-18T17:30:37.637Z,52.97
2023-05-18T17:33:09.303Z,53.69
2023-05-18T17:35:41.055Z,55.32
2023-05-18T17:38:12.733Z,54.55
2023-05-18T17:40:44.292Z,54.05
2023-05-18T17:43:15.913Z,54.10
2023-05-18T17:45:47.728Z,54.14
2023-05-18T17:48:19.433Z,54.18
2023-05-18T17:50:51.075Z,56.21
2023-05-18T17:53:22.779Z,54.65
2023-05-18T17:55:54.465Z,54.21
2023-05-18T17:58:26.196Z,53.30
2023-05-18T18:00:57.911Z,53.46
2023-05-18T18:03:29.782Z,53.74
2023-05-18T18:06:01.942Z,52.94
2023-05-18T18:08:33.766Z,54.32
2023-05-18T18:11:07.642Z,55.03
2023-05-18T18:13:40.740Z,54.17
2023-05-18T18:16:12.615Z,54.97
2023-05-18T18:18:44.635Z,55.30
2023-05-18T18:21:16.379Z,55.91
